createdAt,value
2019-03-24T00:00:01.811Z,45.13
2019-03-24T00:05:07.057Z,47.90
2019-03-24T00:10:12.621Z,45.53
2019-03-24T00:15:25.745Z,52.23
2019-03-24T00:20:24.653Z,46.43
2019-03-24T00:25:29.716Z,46.00
2019-03-24T00:30:34.971Z,45.83
2019-03-24T00:35:40.364Z,45.97
2019-03-24T00:40:45.748Z,45.60
2019-03-24T00:45:50.781Z,50.30
2019-03-24T00:50:55.931Z,46.67
2019-03-24T00:56:01.195Z,49.73
2019-03-24T01:01:06.659Z,48.50
2019-03-24T01:06:12.037Z,46.77
2019-03-24T01:11:17.573Z,47.67
2019-03-24T01:16:23.455Z,44.67
2019-03-24T01:21:28.734Z,45.80
2019-03-24T01:26:34.706Z,54.47
2019-03-24T01:31:39.949Z,44.80
2019-03-24T01:36:47.108Z,48.30
2019-03-24T01:41:52.441Z,52.87
2019-03-24T01:47:00.311Z,48.93
2019-03-24T01:52:09.254Z,45.13
2019-03-24T01:57:14.611Z,45.83
2019-03-24T02:02:21.013Z,47.87
2019-03-24T02:07:26.436Z,47.63
2019-03-24T02:12:31.881Z,51.13
2019-03-24T02:17:36.987Z,51.40
2019-03-24T02:22:42.767Z,56.93
2019-03-24T02:27:48.504Z,46.60
2019-03-24T02:32:54.306Z,56.43
2019-03-24T02:37:59.506Z,44.37
2019-03-24T02:43:05.608Z,45.57
2019-03-24T02:48:10.671Z,46.55
2019-03-24T02:53:16.164Z,42.13
2019-03-24T02:58:21.946Z,42.35
2019-03-24T03:03:27.611Z,41.77
2019-03-24T03:08:32.674Z,46.53
2019-03-24T03:13:38.010Z,42.10
2019-03-24T03:18:42.960Z,52.77
2019-03-24T03:23:48.786Z,45.30
2019-03-24T03:28:54.060Z,46.73
2019-03-24T03:33:59.655Z,46.30
2019-03-24T03:39:07.345Z,60.20
2019-03-24T03:44:12.840Z,49.80
2019-03-24T03:49:17.880Z,45.93
2019-03-24T03:54:23.452Z,51.20
2019-03-24T03:59:29.525Z,52.30
2019-03-24T04:04:34.817Z,55.43
2019-03-24T04:09:40.164Z,49.13
2019-03-24T04:14:45.636Z,51.37
2019-03-24T04:19:54.027Z,50.30
2019-03-24T04:25:03.507Z,49.33
2019-03-24T04:30:08.952Z,57.70
2019-03-24T04:35:13.996Z,56.67
2019-03-24T04:40:19.177Z,55.80
2019-03-24T04:45:24.273Z,60.17
2019-03-24T04:50:29.841Z,50.47
2019-03-24T04:55:35.636Z,55.40
2019-03-24T05:00:41.462Z,54.07
2019-03-24T05:05:47.817Z,56.87
2019-03-24T05:10:53.249Z,60.60
2019-03-24T05:15:58.557Z,57.07
2019-03-24T05:21:04.559Z,47.43
2019-03-24T05:26:09.826Z,54.63
2019-03-24T05:31:14.801Z,52.80
2019-03-24T05:36:20.609Z,63.93
2019-03-24T05:41:25.665Z,57.47
2019-03-24T05:46:31.153Z,54.03
2019-03-24T05:51:37.492Z,56.90
2019-03-24T05:56:43.405Z,51.23
2019-03-24T06:01:49.125Z,62.30
2019-03-24T06:06:54.432Z,51.70
2019-03-24T06:11:59.941Z,50.87
2019-03-24T06:17:05.102Z,47.70
2019-03-24T06:22:10.366Z,52.70
2019-03-24T06:27:15.738Z,50.13
2019-03-24T06:32:21.180Z,46.90
2019-03-24T06:37:26.544Z,42.73
2019-03-24T06:42:31.863Z,51.25
2019-03-24T06:47:37.082Z,45.03
2019-03-24T06:52:42.589Z,44.37
2019-03-24T06:57:48.868Z,49.93
2019-03-24T07:02:54.251Z,45.97
2019-03-24T07:07:59.670Z,43.07
2019-03-24T07:13:04.902Z,46.25
2019-03-24T07:18:19.208Z,44.20
2019-03-24T07:23:24.773Z,43.63
2019-03-24T07:28:30.987Z,43.58
2019-03-24T07:33:38.583Z,43.17
2019-03-24T07:38:44.089Z,43.48
2019-03-24T07:43:49.706Z,53.92
2019-03-24T07:48:55.555Z,47.80
2019-03-24T07:54:00.746Z,40.40
2019-03-24T07:59:06.317Z,42.77
2019-03-24T08:04:28.337Z,60.17
2019-03-24T08:09:34.003Z,62.93
2019-03-24T08:14:43.186Z,58.43
2019-03-24T08:19:49.588Z,56.45
2019-03-24T08:25:09.842Z,61.28
2019-03-24T08:30:20.487Z,62.13
2019-03-24T08:35:26.078Z,63.52
2019-03-24T08:40:31.747Z,71.30
2019-03-24T08:45:37.349Z,77.55
2019-03-24T08:50:45.875Z,77.92
2019-03-24T08:55:51.802Z,83.82
2019-03-24T09:01:00.548Z,74.50
2019-03-24T09:06:05.819Z,76.17
2019-03-24T09:11:11.728Z,71.92
2019-03-24T09:16:17.375Z,71.07
2019-03-24T09:21:22.448Z,73.60
2019-03-24T09:26:28.863Z,81.82
2019-03-24T09:31:34.487Z,73.65
2019-03-24T09:36:41.366Z,73.67
2019-03-24T09:41:46.532Z,79.35
2019-03-24T09:46:52.935Z,74.67
2019-03-24T09:52:01.506Z,78.73
2019-03-24T09:57:15.288Z,65.20
2019-03-24T10:02:25.878Z,59.48
2019-03-24T10:07:35.273Z,65.75
2019-03-24T10:12:42.513Z,69.12
2019-03-24T10:17:52.076Z,76.90
2019-03-24T10:22:58.309Z,69.27
2019-03-24T10:28:06.259Z,65.08
2019-03-24T10:33:12.436Z,72.00
2019-03-24T10:38:18.616Z,67.15
2019-03-24T10:43:24.780Z,70.12
2019-03-24T10:48:33.864Z,60.70
2019-03-24T10:53:41.460Z,64.92
2019-03-24T10:58:47.518Z,64.75
2019-03-24T11:03:53.546Z,79.40
2019-03-24T11:09:00.422Z,76.28
2019-03-24T11:14:05.811Z,64.27
2019-03-24T11:19:11.771Z,67.53
2019-03-24T11:24:19.660Z,71.30
2019-03-24T11:29:27.972Z,72.75
2019-03-24T11:34:34.436Z,70.75
2019-03-24T11:39:39.654Z,62.13
2019-03-24T11:44:45.393Z,70.47
2019-03-24T11:49:51.634Z,68.17
2019-03-24T11:55:02.044Z,69.03
2019-03-24T12:00:11.837Z,69.42
2019-03-24T12:05:17.559Z,64.55
2019-03-24T12:10:26.233Z,61.80
2019-03-24T12:15:32.777Z,59.50
2019-03-24T12:20:38.946Z,60.00
2019-03-24T12:25:45.824Z,63.13
2019-03-24T12:31:05.174Z,61.00
2019-03-24T12:36:11.902Z,60.20
2019-03-24T12:41:20.145Z,82.82
2019-03-24T12:46:26.610Z,83.07
2019-03-24T12:51:33.259Z,79.30
2019-03-24T12:56:42.591Z,80.87
2019-03-24T13:01:52.829Z,83.40
2019-03-24T13:06:58.451Z,92.80
2019-03-24T13:12:07.128Z,86.08
2019-03-24T13:17:12.795Z,80.97
2019-03-24T13:22:18.410Z,83.45
2019-03-24T13:27:23.917Z,81.53
2019-03-24T13:32:30.062Z,69.72
2019-03-24T13:37:35.886Z,73.85
2019-03-24T13:42:42.083Z,75.87
2019-03-24T13:47:47.471Z,76.93
2019-03-24T13:52:53.335Z,70.92
2019-03-24T13:57:58.933Z,67.07
2019-03-24T14:03:11.400Z,66.40
2019-03-24T14:08:19.894Z,55.98
2019-03-24T14:13:29.229Z,53.83
2019-03-24T14:18:35.709Z,53.80
2019-03-24T14:23:42.577Z,54.63
2019-03-24T14:28:48.835Z,51.10
2019-03-24T14:33:57.113Z,52.67
2019-03-24T14:39:08.485Z,67.70
2019-03-24T14:44:17.802Z,55.80
2019-03-24T14:49:26.889Z,53.57
2019-03-24T14:54:59.328Z,59.93
2019-03-24T15:00:05.593Z,58.17
2019-03-24T15:05:12.410Z,56.13
2019-03-24T15:10:18.733Z,59.53
2019-03-24T15:15:24.111Z,52.48
2019-03-24T15:20:30.442Z,54.75
2019-03-24T15:25:35.918Z,63.63
2019-03-24T15:30:42.135Z,56.57
2019-03-24T15:35:48.103Z,55.33
2019-03-24T15:40:53.996Z,57.37
2019-03-24T15:45:59.076Z,62.08
2019-03-24T15:51:04.760Z,60.00
2019-03-24T15:56:12.053Z,59.03
2019-03-24T16:01:17.091Z,62.10
2019-03-24T16:06:27.041Z,60.93
2019-03-24T16:11:35.305Z,60.83
2019-03-24T16:16:40.409Z,60.50
2019-03-24T16:21:48.453Z,64.07
2019-03-24T16:27:00.847Z,60.77
2019-03-24T16:32:06.763Z,62.33
2019-03-24T16:37:13.695Z,50.27
2019-03-24T16:42:19.190Z,56.13
2019-03-24T16:47:24.325Z,56.93
2019-03-24T16:52:31.751Z,61.80
2019-03-24T16:57:39.519Z,55.20
2019-03-24T17:02:44.981Z,55.70
2019-03-24T17:07:50.273Z,67.53
2019-03-24T17:12:55.783Z,64.47
2019-03-24T17:18:05.555Z,62.45
2019-03-24T17:23:13.632Z,63.53
2019-03-24T17:28:20.068Z,63.00
2019-03-24T17:33:26.173Z,72.17
2019-03-24T17:38:31.673Z,61.17
2019-03-24T17:43:37.244Z,62.67
2019-03-24T17:48:42.550Z,64.47
2019-03-24T17:54:02.022Z,63.23
2019-03-24T17:59:08.367Z,63.83
2019-03-24T18:04:15.816Z,70.13
2019-03-24T18:09:29.914Z,55.38
2019-03-24T18:15:25.871Z,53.40
2019-03-24T18:20:39.174Z,57.17
2019-03-24T18:25:47.651Z,63.73
2019-03-24T18:30:53.011Z,62.73
2019-03-24T18:36:00.419Z,59.53
2019-03-24T18:41:06.928Z,72.57
2019-03-24T18:46:19.905Z,57.73
2019-03-24T18:51:47.007Z,62.00
2019-03-24T18:56:58.338Z,64.00
2019-03-24T19:02:07.976Z,61.77
2019-03-24T19:07:15.931Z,68.37
2019-03-24T19:12:24.521Z,68.67
2019-03-24T19:17:32.949Z,62.10
2019-03-24T19:22:43.871Z,69.00
2019-03-24T19:27:50.658Z,66.77
2019-03-24T19:38:20.858Z,81.10
2019-03-24T19:48:43.356Z,71.03
2019-03-24T19:59:02.395Z,88.40
2019-03-24T20:04:10.593Z,79.63
2019-03-24T20:09:17.573Z,67.58
2019-03-24T20:14:25.555Z,62.13
2019-03-24T20:19:33.736Z,81.77
2019-03-24T20:24:39.555Z,72.37
2019-03-24T20:29:44.890Z,77.90
2019-03-24T20:34:52.645Z,71.00
2019-03-24T20:39:59.753Z,66.67
2019-03-24T20:45:07.923Z,66.57
2019-03-24T20:50:13.760Z,71.67
2019-03-24T20:55:20.100Z,81.63
2019-03-24T21:00:34.895Z,72.43
2019-03-24T21:05:40.752Z,81.00
2019-03-24T21:10:50.646Z,83.07
2019-03-24T21:15:57.117Z,70.53
2019-03-24T21:21:02.314Z,67.72
2019-03-24T21:26:11.084Z,79.33
2019-03-24T21:31:16.477Z,73.53
2019-03-24T21:36:21.838Z,80.10
2019-03-24T21:41:27.422Z,93.33
2019-03-24T21:46:34.346Z,82.77
2019-03-24T21:51:40.686Z,90.63
2019-03-24T21:56:45.688Z,83.07
2019-03-24T22:01:50.793Z,84.00
2019-03-24T22:06:56.106Z,78.33
2019-03-24T22:12:01.696Z,78.30
2019-03-24T22:17:07.100Z,80.60
2019-03-24T22:22:12.425Z,82.53
2019-03-24T22:27:17.596Z,80.97
2019-03-24T22:32:23.114Z,83.70
2019-03-24T22:37:28.635Z,81.87
2019-03-24T22:42:33.966Z,77.72
2019-03-24T22:47:38.923Z,80.27
2019-03-24T22:52:50.317Z,75.13
2019-03-24T22:57:55.488Z,91.20
2019-03-24T23:03:03.944Z,78.93
2019-03-24T23:08:08.996Z,73.17
2019-03-24T23:13:15.029Z,70.07
2019-03-24T23:18:20.416Z,83.47
2019-03-24T23:23:25.646Z,77.80
2019-03-24T23:28:30.710Z,75.40
2019-03-24T23:33:40.829Z,64.97
2019-03-24T23:38:45.744Z,63.83
2019-03-24T23:43:52.347Z,58.47
2019-03-24T23:48:57.719Z,50.20
2019-03-24T23:54:03.487Z,54.20
2019-03-24T23:59:09.172Z,49.53
